createdAt,value
2017-10-25T00:00:58.351Z,9.10
2017-10-25T00:03:25.938Z,8.07
2017-10-25T00:05:54.270Z,7.57
2017-10-25T00:08:21.927Z,8.00
2017-10-25T00:10:49.498Z,7.37
2017-10-25T00:13:17.093Z,7.80
2017-10-25T00:15:44.754Z,8.67
2017-10-25T00:18:12.362Z,8.80
2017-10-25T00:20:39.978Z,7.43
2017-10-25T00:23:07.636Z,7.37
2017-10-25T00:25:35.575Z,7.50
2017-10-25T00:28:04.086Z,6.83
2017-10-25T00:30:31.731Z,7.30
2017-10-25T00:32:59.503Z,8.50
2017-10-25T00:35:27.146Z,8.10
2017-10-25T00:37:54.722Z,7.77
2017-10-25T00:40:22.330Z,7.40
2017-10-25T00:42:50.670Z,7.43
2017-10-25T00:45:18.337Z,7.87
2017-10-25T00:47:45.914Z,8.23
2017-10-25T00:50:14.340Z,8.73
2017-10-25T00:52:41.922Z,7.70
2017-10-25T00:55:09.522Z,8.20
2017-10-25T00:57:37.879Z,7.50
2017-10-25T01:00:05.459Z,7.70
2017-10-25T01:02:33.837Z,8.13
2017-10-25T01:05:03.943Z,8.13
2017-10-25T01:07:31.575Z,7.77
2017-10-25T01:09:59.166Z,7.83
2017-10-25T01:12:26.775Z,7.60
2017-10-25T01:14:54.378Z,7.87
2017-10-25T01:17:21.943Z,8.63
2017-10-25T01:19:49.553Z,7.70
2017-10-25T01:22:17.127Z,6.90
2017-10-25T01:24:44.748Z,7.57
2017-10-25T01:27:12.321Z,8.93
2017-10-25T01:29:40.725Z,7.93
2017-10-25T01:32:08.359Z,8.37
2017-10-25T01:34:35.978Z,8.80
2017-10-25T01:37:03.590Z,8.53
2017-10-25T01:39:31.924Z,9.00
2017-10-25T01:41:59.513Z,10.20
2017-10-25T01:44:27.133Z,10.27
2017-10-25T01:46:54.726Z,9.97
2017-10-25T01:49:22.331Z,8.80
2017-10-25T01:51:49.917Z,10.00
2017-10-25T01:54:17.513Z,9.13
2017-10-25T01:56:45.080Z,9.83
2017-10-25T01:59:12.665Z,9.40
2017-10-25T02:01:40.266Z,10.53
2017-10-25T02:04:07.842Z,10.70
2017-10-25T02:06:35.423Z,11.27
2017-10-25T02:09:02.978Z,11.60
2017-10-25T02:11:30.570Z,11.30
2017-10-25T02:13:58.154Z,10.70
2017-10-25T02:16:26.802Z,10.73
2017-10-25T02:18:55.158Z,10.73
2017-10-25T02:21:22.734Z,11.77
2017-10-25T02:23:51.102Z,12.33
2017-10-25T02:26:18.701Z,11.73
2017-10-25T02:28:46.290Z,12.70
2017-10-25T02:31:13.911Z,12.67
2017-10-25T02:33:42.435Z,11.77
2017-10-25T02:36:10.003Z,11.37
2017-10-25T02:38:37.651Z,12.10
2017-10-25T02:41:05.236Z,11.73
2017-10-25T02:43:32.809Z,12.37
2017-10-25T02:46:00.398Z,12.27
2017-10-25T02:48:28.747Z,12.87
2017-10-25T02:50:56.357Z,12.57
2017-10-25T02:53:23.962Z,12.00
2017-10-25T02:55:51.595Z,11.17
2017-10-25T02:58:19.218Z,11.50
2017-10-25T03:00:46.806Z,11.40
2017-10-25T03:03:14.436Z,10.63
2017-10-25T03:05:42.004Z,10.77
2017-10-25T03:08:10.405Z,11.33
2017-10-25T03:10:38.017Z,9.70
2017-10-25T03:13:05.597Z,10.00
2017-10-25T03:15:33.171Z,10.90
2017-10-25T03:18:01.527Z,10.23
2017-10-25T03:20:29.114Z,10.33
2017-10-25T03:22:57.499Z,9.50
2017-10-25T03:25:25.082Z,10.30
2017-10-25T03:27:52.674Z,10.40
2017-10-25T03:30:20.252Z,10.67
2017-10-25T03:32:47.867Z,10.13
2017-10-25T03:35:15.570Z,9.20
2017-10-25T03:37:43.149Z,9.70
2017-10-25T03:40:10.756Z,10.17
2017-10-25T03:42:38.374Z,10.33
2017-10-25T03:45:06.044Z,9.20
2017-10-25T03:47:33.663Z,9.50
2017-10-25T03:50:01.249Z,10.40
2017-10-25T03:52:29.193Z,10.57
2017-10-25T03:54:56.785Z,9.17
2017-10-25T03:57:24.401Z,9.50
2017-10-25T03:59:52.232Z,9.77
2017-10-25T04:02:20.571Z,9.50
2017-10-25T04:04:48.152Z,9.67
2017-10-25T04:07:15.901Z,8.23
2017-10-25T04:09:43.740Z,8.00
2017-10-25T04:12:11.486Z,9.10
2017-10-25T04:14:39.074Z,8.23
2017-10-25T04:17:06.685Z,7.93
2017-10-25T04:19:35.198Z,7.67
2017-10-25T04:22:02.795Z,8.03
2017-10-25T04:24:30.393Z,7.60
2017-10-25T04:26:58.770Z,6.97
2017-10-25T04:29:27.187Z,6.70
2017-10-25T04:31:54.792Z,5.60
2017-10-25T04:34:22.398Z,5.90
2017-10-25T04:36:50.017Z,6.10
2017-10-25T04:39:17.621Z,5.90
2017-10-25T04:41:45.235Z,5.93
2017-10-25T04:44:12.874Z,6.00
2017-10-25T04:46:40.470Z,6.03
2017-10-25T04:49:08.424Z,5.73
2017-10-25T04:51:36.071Z,5.60
2017-10-25T04:54:03.666Z,5.33
2017-10-25T04:56:31.687Z,6.57
2017-10-25T04:59:00.261Z,6.30
2017-10-25T05:01:27.834Z,6.07
2017-10-25T05:03:56.165Z,6.90
2017-10-25T05:06:23.999Z,7.87
2017-10-25T05:08:52.453Z,6.20
2017-10-25T05:11:20.108Z,6.27
2017-10-25T05:13:47.698Z,7.10
2017-10-25T05:16:16.459Z,7.53
2017-10-25T05:18:44.121Z,7.40
2017-10-25T05:21:11.701Z,6.50
2017-10-25T05:23:39.315Z,6.90
2017-10-25T05:26:06.970Z,7.00
2017-10-25T05:28:34.558Z,6.93
2017-10-25T05:31:02.915Z,7.20
2017-10-25T05:33:30.532Z,7.33
2017-10-25T05:35:58.095Z,7.80
2017-10-25T05:38:25.959Z,6.50
2017-10-25T05:40:55.206Z,6.90
2017-10-25T05:43:22.831Z,6.30
2017-10-25T05:45:50.450Z,6.77
2017-10-25T05:48:18.811Z,6.90
2017-10-25T05:50:47.182Z,5.73
2017-10-25T05:53:14.764Z,7.00
2017-10-25T05:55:44.495Z,6.50
2017-10-25T05:58:12.082Z,8.63
2017-10-25T06:00:39.679Z,6.13
2017-10-25T06:03:07.270Z,6.50
2017-10-25T06:05:34.895Z,6.17
2017-10-25T06:08:02.593Z,6.37
2017-10-25T06:10:30.919Z,5.80
2017-10-25T06:12:58.531Z,6.30
2017-10-25T06:15:26.953Z,7.23
2017-10-25T06:17:55.492Z,6.73
2017-10-25T06:20:23.837Z,6.93
2017-10-25T06:22:51.417Z,6.63
2017-10-25T06:25:19.841Z,6.37
2017-10-25T06:27:47.419Z,5.93
2017-10-25T06:30:15.026Z,6.83
2017-10-25T06:32:42.641Z,7.33
2017-10-25T06:35:10.263Z,6.10
2017-10-25T06:37:38.643Z,6.90
2017-10-25T06:40:07.050Z,6.30
2017-10-25T06:42:34.644Z,5.93
2017-10-25T06:45:02.258Z,5.70
2017-10-25T06:47:29.828Z,6.20
2017-10-25T06:49:57.393Z,6.43
2017-10-25T06:52:25.590Z,5.97
2017-10-25T06:54:53.203Z,5.50
2017-10-25T06:57:21.564Z,6.80
2017-10-25T06:59:49.163Z,6.10
2017-10-25T07:02:16.759Z,6.00
2017-10-25T07:04:44.815Z,6.53
2017-10-25T07:07:12.420Z,6.37
2017-10-25T07:09:40.055Z,6.10
2017-10-25T07:12:07.652Z,6.27
2017-10-25T07:14:35.285Z,5.60
2017-10-25T07:17:02.942Z,6.20
2017-10-25T07:19:30.550Z,6.20
2017-10-25T07:21:58.908Z,5.90
2017-10-25T07:24:27.499Z,5.63
2017-10-25T07:26:55.849Z,5.80
2017-10-25T07:29:23.481Z,5.60
2017-10-25T07:31:51.986Z,6.00
2017-10-25T07:34:19.597Z,7.00
2017-10-25T07:36:48.504Z,5.37
2017-10-25T07:39:16.102Z,5.37
2017-10-25T07:41:43.692Z,6.03
2017-10-25T07:44:11.358Z,6.70
2017-10-25T07:46:38.941Z,7.10
2017-10-25T07:49:07.314Z,5.63
2017-10-25T07:51:35.697Z,5.67
2017-10-25T07:54:04.092Z,6.00
2017-10-25T07:56:31.711Z,6.20
2017-10-25T07:58:59.281Z,5.60
2017-10-25T08:01:27.656Z,6.40
2017-10-25T08:03:55.269Z,5.83
2017-10-25T08:06:22.858Z,6.07
2017-10-25T08:08:50.466Z,5.03
2017-10-25T08:11:18.895Z,5.43
2017-10-25T08:13:46.478Z,4.70
2017-10-25T08:16:14.108Z,9.20
2017-10-25T08:18:41.827Z,5.73
2017-10-25T08:21:10.169Z,5.67
2017-10-25T08:23:37.776Z,4.80
2017-10-25T08:26:06.135Z,5.77
2017-10-25T08:28:33.814Z,5.50
2017-10-25T08:31:02.195Z,6.00
2017-10-25T08:33:30.539Z,5.97
2017-10-25T08:35:58.196Z,6.63
2017-10-25T08:38:25.828Z,6.13
2017-10-25T08:40:53.428Z,6.23
2017-10-25T08:43:20.997Z,5.53
2017-10-25T08:45:48.600Z,5.27
2017-10-25T08:48:16.210Z,6.37
2017-10-25T08:50:43.871Z,4.77
2017-10-25T08:53:11.488Z,5.60
2017-10-25T08:55:39.078Z,5.93
2017-10-25T08:58:06.735Z,6.27
2017-10-25T09:00:34.283Z,6.20
2017-10-25T09:03:01.979Z,5.53
2017-10-25T09:05:29.604Z,5.50
2017-10-25T09:07:57.228Z,5.70
2017-10-25T09:10:25.608Z,5.20
2017-10-25T09:12:53.985Z,6.10
2017-10-25T09:15:22.340Z,4.90
2017-10-25T09:17:50.035Z,4.97
2017-10-25T09:20:18.407Z,5.90
2017-10-25T09:22:46.025Z,4.80
2017-10-25T09:25:13.676Z,5.40
2017-10-25T09:27:41.270Z,5.50
2017-10-25T09:30:08.863Z,4.90
2017-10-25T09:32:37.258Z,5.03
2017-10-25T09:35:05.697Z,6.13
2017-10-25T09:37:33.290Z,4.70
2017-10-25T09:40:01.674Z,4.97
2017-10-25T09:42:29.997Z,5.50
2017-10-25T09:44:57.722Z,4.77
2017-10-25T09:47:26.242Z,5.53
2017-10-25T09:49:53.816Z,5.40
2017-10-25T09:52:21.493Z,5.00
2017-10-25T09:54:49.966Z,5.60
2017-10-25T09:57:17.559Z,5.90
2017-10-25T09:59:45.963Z,6.27
2017-10-25T10:02:13.576Z,6.40
2017-10-25T10:04:41.146Z,5.30
2017-10-25T10:07:08.746Z,5.87
2017-10-25T10:09:36.319Z,5.83
2017-10-25T10:12:04.686Z,8.20
2017-10-25T10:14:32.328Z,6.27
2017-10-25T10:17:00.729Z,7.00
2017-10-25T10:19:28.322Z,6.33
2017-10-25T10:21:55.901Z,5.87
2017-10-25T10:24:23.501Z,6.07
2017-10-25T10:26:51.901Z,7.80
2017-10-25T10:29:19.531Z,5.90
2017-10-25T10:31:47.897Z,5.73
2017-10-25T10:34:15.613Z,6.63
2017-10-25T10:36:43.227Z,7.13
2017-10-25T10:39:11.055Z,6.10
2017-10-25T10:41:38.679Z,7.10
2017-10-25T10:44:06.324Z,6.30
2017-10-25T10:46:34.697Z,6.57
2017-10-25T10:49:02.305Z,6.27
2017-10-25T10:51:29.893Z,7.20
2017-10-25T10:53:57.521Z,6.70
2017-10-25T10:56:25.138Z,6.47
2017-10-25T10:58:52.732Z,7.10
2017-10-25T11:01:20.301Z,6.63
2017-10-25T11:03:47.903Z,7.03
2017-10-25T11:06:15.524Z,7.73
2017-10-25T11:08:43.103Z,6.27
2017-10-25T11:11:10.706Z,6.57
2017-10-25T11:13:38.344Z,6.67
2017-10-25T11:16:05.911Z,7.47
2017-10-25T11:18:33.652Z,7.60
2017-10-25T11:21:01.242Z,7.10
2017-10-25T11:23:28.847Z,6.90
2017-10-25T11:25:57.245Z,8.47
2017-10-25T11:28:24.862Z,7.47
2017-10-25T11:30:52.469Z,7.43
2017-10-25T11:33:20.132Z,6.90
2017-10-25T11:35:47.748Z,7.80
2017-10-25T11:38:15.354Z,9.97
2017-10-25T11:40:42.940Z,8.07
2017-10-25T11:43:10.806Z,8.67
2017-10-25T11:45:38.448Z,7.50
2017-10-25T11:48:06.070Z,7.90
2017-10-25T11:50:34.442Z,7.50
2017-10-25T11:53:02.068Z,8.70
2017-10-25T11:55:29.647Z,8.47
2017-10-25T11:57:57.270Z,9.00
2017-10-25T12:00:25.066Z,9.70
2017-10-25T12:02:52.904Z,9.53
2017-10-25T12:05:20.550Z,9.43
2017-10-25T12:07:48.938Z,9.40
2017-10-25T12:10:16.511Z,8.77
2017-10-25T12:12:44.382Z,8.67
2017-10-25T12:15:11.966Z,9.93
2017-10-25T12:17:39.578Z,10.00
2017-10-25T12:20:07.180Z,9.30
2017-10-25T12:22:34.774Z,9.13
2017-10-25T12:25:02.361Z,9.83
2017-10-25T12:27:29.932Z,10.27
2017-10-25T12:29:57.529Z,11.20
2017-10-25T12:32:25.141Z,11.77
2017-10-25T12:34:53.608Z,8.93
2017-10-25T12:37:21.261Z,10.23
2017-10-25T12:39:48.842Z,9.90
2017-10-25T12:42:17.198Z,12.03
2017-10-25T12:44:44.824Z,11.67
2017-10-25T12:47:12.431Z,9.90
2017-10-25T12:49:40.130Z,10.33
2017-10-25T12:52:07.704Z,9.23
2017-10-25T12:54:35.379Z,10.10
2017-10-25T12:57:02.974Z,10.80
2017-10-25T12:59:30.582Z,10.03
2017-10-25T13:01:58.210Z,10.30
2017-10-25T13:04:25.815Z,9.53
2017-10-25T13:06:53.426Z,9.60
2017-10-25T13:09:21.022Z,9.87
2017-10-25T13:11:53.435Z,10.00
2017-10-25T13:14:23.910Z,11.63
2017-10-25T13:16:58.370Z,11.23
2017-10-25T13:19:25.955Z,10.97
2017-10-25T13:21:54.491Z,11.90
2017-10-25T13:24:22.066Z,12.77
2017-10-25T13:26:50.268Z,11.70
2017-10-25T13:29:18.804Z,11.03
2017-10-25T13:31:48.120Z,11.80
2017-10-25T13:34:15.722Z,11.17
2017-10-25T13:36:43.322Z,11.67
2017-10-25T13:39:11.735Z,12.60
2017-10-25T13:41:39.399Z,12.70
2017-10-25T13:44:07.045Z,11.30
2017-10-25T13:46:35.252Z,15.83
2017-10-25T13:49:02.852Z,13.47
2017-10-25T13:51:33.128Z,20.50
2017-10-25T13:54:00.744Z,12.60
2017-10-25T13:56:29.169Z,11.90
2017-10-25T13:58:58.066Z,14.83
2017-10-25T14:01:25.662Z,11.07
2017-10-25T14:03:56.127Z,14.10
2017-10-25T14:06:23.812Z,11.40
2017-10-25T14:08:51.750Z,12.33
2017-10-25T14:11:21.089Z,13.20
2017-10-25T14:13:50.842Z,16.03
2017-10-25T14:16:18.498Z,12.97
2017-10-25T14:18:46.194Z,11.87
2017-10-25T14:21:13.807Z,14.33
2017-10-25T14:23:41.473Z,12.53
2017-10-25T14:26:09.048Z,15.87
2017-10-25T14:28:48.450Z,14.77
2017-10-25T14:31:17.078Z,14.83
2017-10-25T14:33:45.461Z,14.20
2017-10-25T14:36:14.899Z,15.70
2017-10-25T14:38:43.998Z,14.00
2017-10-25T14:41:11.602Z,12.53
2017-10-25T14:43:39.686Z,14.50
2017-10-25T14:46:08.060Z,15.05
2017-10-25T14:48:35.850Z,14.30
2017-10-25T14:51:04.226Z,13.60
2017-10-25T14:53:31.822Z,13.80
2017-10-25T14:55:59.448Z,15.10
2017-10-25T14:58:27.783Z,15.40
2017-10-25T15:00:55.498Z,13.73
2017-10-25T15:03:23.859Z,14.30
2017-10-25T15:05:51.461Z,16.50
2017-10-25T15:08:19.073Z,13.90
2017-10-25T15:10:47.431Z,14.13
2017-10-25T15:13:15.380Z,13.90
2017-10-25T15:15:42.961Z,16.10
2017-10-25T15:18:10.560Z,16.83
2017-10-25T15:20:38.181Z,16.27
2017-10-25T15:23:05.824Z,16.63
2017-10-25T15:25:33.415Z,15.77
2017-10-25T15:28:01.051Z,17.43
2017-10-25T15:30:28.708Z,15.90
2017-10-25T15:32:56.291Z,16.23
2017-10-25T15:35:23.915Z,17.20
2017-10-25T15:37:51.506Z,16.83
2017-10-25T15:40:19.114Z,17.07
2017-10-25T15:42:46.719Z,16.60
2017-10-25T15:45:14.339Z,16.10
2017-10-25T15:47:41.997Z,17.00
2017-10-25T15:50:09.606Z,15.40
2017-10-25T15:52:37.232Z,17.00
2017-10-25T15:55:05.620Z,15.37
2017-10-25T15:57:34.012Z,15.50
2017-10-25T16:00:02.378Z,16.90
2017-10-25T16:02:31.657Z,16.27
2017-10-25T16:05:01.700Z,22.33
2017-10-25T16:07:29.402Z,16.30
2017-10-25T16:09:57.126Z,15.87
2017-10-25T16:12:25.483Z,15.30
2017-10-25T16:14:53.136Z,15.03
2017-10-25T16:17:21.078Z,16.20
2017-10-25T16:19:48.800Z,15.80
2017-10-25T16:22:17.245Z,16.20
2017-10-25T16:24:44.859Z,16.90
2017-10-25T16:27:12.767Z,17.73
2017-10-25T16:29:40.361Z,16.40
2017-10-25T16:32:08.026Z,15.90
2017-10-25T16:34:37.224Z,17.20
2017-10-25T16:37:06.463Z,16.40
2017-10-25T16:39:34.107Z,17.97
2017-10-25T16:42:01.885Z,18.93
2017-10-25T16:44:29.858Z,18.00
2017-10-25T16:46:57.455Z,17.30
2017-10-25T16:49:25.190Z,17.40
2017-10-25T16:51:54.342Z,18.17
2017-10-25T16:54:21.973Z,18.03
2017-10-25T16:56:49.611Z,16.30
2017-10-25T16:59:18.004Z,18.20
2017-10-25T17:01:45.651Z,17.03
2017-10-25T17:04:13.251Z,16.13
2017-10-25T17:06:40.877Z,16.23
2017-10-25T17:09:08.555Z,16.60
2017-10-25T17:11:36.180Z,17.20
2017-10-25T17:14:04.603Z,21.00
2017-10-25T17:16:33.117Z,18.60
2017-10-25T17:19:00.722Z,17.63
2017-10-25T17:21:28.355Z,18.80
2017-10-25T17:23:55.987Z,18.37
2017-10-25T17:26:23.624Z,18.07
2017-10-25T17:28:51.261Z,18.73
2017-10-25T17:31:18.887Z,18.00
2017-10-25T17:33:46.477Z,16.33
2017-10-25T17:36:14.864Z,21.47
2017-10-25T17:38:43.329Z,18.40
2017-10-25T17:41:12.072Z,19.73
2017-10-25T17:43:39.680Z,18.40
2017-10-25T17:46:08.101Z,18.70
2017-10-25T17:48:35.728Z,20.10
2017-10-25T17:51:04.115Z,19.30
2017-10-25T17:53:31.802Z,19.73
2017-10-25T17:55:59.409Z,20.37
2017-10-25T17:58:27.053Z,20.23
2017-10-25T18:00:55.499Z,20.20
2017-10-25T18:03:23.110Z,19.70
2017-10-25T18:05:50.920Z,20.57
2017-10-25T18:08:18.502Z,20.67
2017-10-25T18:10:46.155Z,18.33
2017-10-25T18:13:13.748Z,19.70
2017-10-25T18:15:41.466Z,20.50
2017-10-25T18:18:09.082Z,23.13
2017-10-25T18:20:36.774Z,21.87
2017-10-25T18:23:04.483Z,20.60
2017-10-25T18:25:32.122Z,21.43
2017-10-25T18:28:00.226Z,20.30
2017-10-25T18:30:28.048Z,19.73
2017-10-25T18:32:56.420Z,21.70
2017-10-25T18:35:24.788Z,22.43
2017-10-25T18:37:52.392Z,23.03
2017-10-25T18:40:20.070Z,21.80
2017-10-25T18:42:47.715Z,21.03
2017-10-25T18:45:15.341Z,21.47
2017-10-25T18:47:43.017Z,22.50
2017-10-25T18:50:11.429Z,21.73
2017-10-25T18:52:39.063Z,21.60
2017-10-25T18:55:07.451Z,23.30
2017-10-25T18:57:35.113Z,23.70
2017-10-25T19:00:03.498Z,22.97
2017-10-25T19:02:31.164Z,23.57
2017-10-25T19:04:58.797Z,24.23
2017-10-25T19:07:26.458Z,22.70
2017-10-25T19:09:54.816Z,24.57
2017-10-25T19:12:22.449Z,24.00
2017-10-25T19:14:50.068Z,26.77
2017-10-25T19:17:17.714Z,25.30
2017-10-25T19:19:45.334Z,25.03
2017-10-25T19:22:12.964Z,23.83
2017-10-25T19:24:41.434Z,25.20
2017-10-25T19:27:09.860Z,25.33
2017-10-25T19:29:37.467Z,24.47
2017-10-25T19:32:05.065Z,24.50
2017-10-25T19:34:32.655Z,25.80
2017-10-25T19:37:01.427Z,25.90
2017-10-25T19:39:29.035Z,23.37
2017-10-25T19:41:56.690Z,24.70
2017-10-25T19:44:24.286Z,25.57
2017-10-25T19:46:52.639Z,24.17
2017-10-25T19:49:21.013Z,25.37
2017-10-25T19:51:48.685Z,23.10
2017-10-25T19:54:16.272Z,25.57
2017-10-25T19:56:44.679Z,23.73
2017-10-25T19:59:12.270Z,25.77
2017-10-25T20:01:40.052Z,24.00
2017-10-25T20:04:07.735Z,25.03
2017-10-25T20:06:36.286Z,26.03
2017-10-25T20:09:03.931Z,26.00
2017-10-25T20:11:31.857Z,25.20
2017-10-25T20:14:00.366Z,25.93
2017-10-25T20:16:27.992Z,24.10
2017-10-25T20:18:55.603Z,25.80
2017-10-25T20:21:23.785Z,25.93
2017-10-25T20:23:51.404Z,25.67
2017-10-25T20:26:18.986Z,24.20
2017-10-25T20:28:46.582Z,23.73
2017-10-25T20:31:14.189Z,26.37
2017-10-25T20:33:41.821Z,26.60
2017-10-25T20:36:09.429Z,27.00
2017-10-25T20:38:36.997Z,25.07
2017-10-25T20:41:04.663Z,25.27
2017-10-25T20:43:32.258Z,27.53
2017-10-25T20:45:59.889Z,28.83
2017-10-25T20:48:27.474Z,24.70
2017-10-25T20:50:55.305Z,24.80
2017-10-25T20:53:22.908Z,23.87
2017-10-25T20:55:50.520Z,24.70
2017-10-25T20:58:18.102Z,24.70
2017-10-25T21:00:45.726Z,25.20
2017-10-25T21:03:14.096Z,24.33
2017-10-25T21:05:41.702Z,25.40
2017-10-25T21:08:09.631Z,27.13
2017-10-25T21:10:38.028Z,25.97
2017-10-25T21:13:06.402Z,24.50
2017-10-25T21:15:34.042Z,24.43
2017-10-25T21:18:02.652Z,25.57
2017-10-25T21:20:30.292Z,25.33
2017-10-25T21:22:57.899Z,25.03
2017-10-25T21:25:25.521Z,25.23
2017-10-25T21:27:53.938Z,25.57
2017-10-25T21:30:21.613Z,25.43
2017-10-25T21:32:49.293Z,24.13
2017-10-25T21:35:16.995Z,23.03
2017-10-25T21:37:45.466Z,23.20
2017-10-25T21:40:13.810Z,24.97
2017-10-25T21:42:41.406Z,23.57
2017-10-25T21:45:09.741Z,23.97
2017-10-25T21:47:37.399Z,23.17
2017-10-25T21:50:05.022Z,23.67
2017-10-25T21:52:33.358Z,23.57
2017-10-25T21:55:00.945Z,24.00
2017-10-25T21:57:28.538Z,22.60
2017-10-25T21:59:56.127Z,22.87
2017-10-25T22:02:24.491Z,24.43
2017-10-25T22:04:52.155Z,24.80
2017-10-25T22:07:19.766Z,25.80
2017-10-25T22:09:48.166Z,23.53
2017-10-25T22:12:16.527Z,26.63
2017-10-25T22:14:44.206Z,23.43
2017-10-25T22:17:12.610Z,26.33
2017-10-25T22:19:40.201Z,23.53
2017-10-25T22:22:08.060Z,26.00
2017-10-25T22:24:35.630Z,25.20
2017-10-25T22:27:03.222Z,24.10
2017-10-25T22:29:30.852Z,25.17
2017-10-25T22:31:58.443Z,25.37
2017-10-25T22:34:26.023Z,24.83
2017-10-25T22:36:54.379Z,23.87
2017-10-25T22:39:21.987Z,22.67
2017-10-25T22:41:49.899Z,22.20
2017-10-25T22:44:17.497Z,24.93
2017-10-25T22:46:46.141Z,24.10
2017-10-25T22:49:13.750Z,23.57
2017-10-25T22:51:42.270Z,24.87
2017-10-25T22:54:10.616Z,24.30
2017-10-25T22:56:39.230Z,24.70
2017-10-25T22:59:06.888Z,25.17
2017-10-25T23:01:34.489Z,24.10
2017-10-25T23:04:02.082Z,25.23
2017-10-25T23:06:30.725Z,24.10
2017-10-25T23:08:58.297Z,24.33
2017-10-25T23:11:25.992Z,25.60
2017-10-25T23:13:54.347Z,24.30
2017-10-25T23:16:21.930Z,26.13
2017-10-25T23:18:50.290Z,24.87
2017-10-25T23:21:17.881Z,24.00
2017-10-25T23:23:46.239Z,23.77
2017-10-25T23:26:14.607Z,23.20
2017-10-25T23:28:42.244Z,21.87
2017-10-25T23:31:09.827Z,23.00
2017-10-25T23:33:37.602Z,23.30
2017-10-25T23:36:05.198Z,25.37
2017-10-25T23:38:32.770Z,24.60
2017-10-25T23:41:00.620Z,23.40
2017-10-25T23:43:28.239Z,24.47
2017-10-25T23:45:55.818Z,27.33
2017-10-25T23:48:24.162Z,22.93
2017-10-25T23:50:51.938Z,23.80
2017-10-25T23:53:19.493Z,24.40
2017-10-25T23:55:47.081Z,26.30
2017-10-25T23:58:14.671Z,25.03
